EDDK Airport Information

Runway Information
Runway 06 Length 8067 ft width 148 ft
Elevation 231 ft Threshold 0 ft Heading 64
Runway 24 Length 8067 ft Width 148 ft
Elevation 272 ft Threshold 0 ft Heading 244
Runway 14L Length 12516 ft width 197 ft
Elevation 230 ft Threshold 0 ft Heading 138
Runway 32R Length 12516 ft Width 197 ft
Elevation 302 ft Threshold 0 ft Heading 318
Runway 14R Length 6112 ft width 148 ft
Elevation 221 ft Threshold 0 ft Heading 138
Runway 32L Length 6112 ft Width 148 ft
Elevation 259 ft Threshold 0 ft Heading 318
Airport Frequencies
Type ATIS Name ATIS Frequency 112.15 MHZ
Type CLD Name CLNC DEL Frequency 121.85 MHZ
Type DIR Name DIR Frequency 121.05 MHZ
Type GND Name GND Frequency 121.725 MHZ
Type INFO Name LANGEN INF Frequency 129.875 MHZ
Type MISC Name APRON Frequency 121.95 MHZ
Type POST Name MIL Frequency 136.25 MHZ
Type RDR Name LANGEN RAD Frequency 118.75 MHZ
Type TWR Name TWR Frequency 124.975 MHZ
Airport Navaids
Type VORTAC Name Cola Frequency 108800 KHZ
Type VOR-DME Name Koln/Bonn Frequency 112150 KHZ
Type NDB Name Koln/Bonn Frequency 365 KHZ
Type NDB Name Koln/Bonn Frequency 327 KHZ
Type NDB Name Koln/Bonn Frequency 301 KHZ
Airport Weather Information & NOTAM
ADDS - METARS form results

(0849 UTC 18 May 2022)
Data provider http://aviationweather.gov/metar/data/
 
METAR text: EDDK 180820Z AUTO 13006KT 090V170 CAVOK 24/14 Q1022 NOSIG
Conditions at: EDDK (KOELN/BONN , DE) observed 0820 UTC 18 May 2022
Temperature: 24.0°C (75°F)
Dewpoint: 14.0°C (57°F) [RH = 54%]
Pressure (altimeter): 30.18 inches Hg (1022.0 mb)
Winds: from the SE (130 degrees) at 7 MPH (6 knots; 3.1 m/s)
Visibility: 6 or more miles (10+ km)
Ceiling: ceiling and visibility are OK
Clouds: unknown
Weather: no significant weather observed at this time

METAR text: EDDK 180750Z AUTO 14007KT 110V170 CAVOK 24/14 Q1022 NOSIG
Conditions at: EDDK (KOELN/BONN , DE) observed 0750 UTC 18 May 2022
Temperature: 24.0°C (75°F)
Dewpoint: 14.0°C (57°F) [RH = 54%]
Pressure (altimeter): 30.18 inches Hg (1022.0 mb)
Winds: from the SE (140 degrees) at 8 MPH (7 knots; 3.6 m/s)
Visibility: 6 or more miles (10+ km)
Ceiling: ceiling and visibility are OK
Clouds: unknown
Weather: no significant weather observed at this time

Forecast for: EDDK (KOELN/BONN , DE)
Text: TAF EDDK 180500Z 1806/1912 12005KT CAVOK
Forecast period: 0600 UTC 18 May 2022 to 0600 UTC 19 May 2022
Forecast type: FROM: standard forecast or significant change
Winds: from the ESE (120 degrees) at 6 MPH (5 knots; 2.6 m/s)
Visibility: 6 or more miles (10+ km)
Ceiling: unknown
Clouds: missing
Weather: NSW  (no significant weather)
Text: BECMG 1906/1909 16010KT
Forecast period: 0600 to 1200 UTC 19 May 2022
Forecast type: BECOMING: Conditions expected to become as follows by 0900 UTC 19 May 2022
Winds: from the SSE (160 degrees) at 12 MPH (10 knots; 5.1 m/s)
Visibility: 6 or more miles (10+ km)
Ceiling: unknown
Clouds: missing
Weather: NSW  (no significant weather)